Cato Island, Australia
Current Conditions -  °F | °C
As of 2:00 PM on Thursday 23 Oct 2014 (Local Time) from YBUD Reporting Station
Clear Clear  
Wind Chill: 79°   Ceiling: Unl
Heat Index: 79°   Visibility: 6mi
Dew Point: 52°   Wind: 12mph
Humidity: 39%   Direction: 80°E
Pressure: 30.06"   Gusts: NA
Location:  23.25°S, 155.53°E
Report Text: YBUD 230400Z AUTO 08010KT 9999 // NCD 26/11 Q1018
Loading
Personal Weather Stations






























Interactive Weather Map New forecast layout! Learn more

10-Day Weather Forecast

Advertisements
Track Severe Weather on mobile